Etusivu
METAR-TAF:

METAR-TAF

Lentoasemat :

Saint-Brieuc, Ranska

Leveyspiiri: 48-32N, Pituuspiiri: 002-51W, korkeus merenpinnasta: 138 m

Tämänhetkinen sää

Tämä raportti tehtiin 42 minuuttia sitten, kello 06.00 UTC
tyyntä
Lämpötila 6°C
Kosteus 100%
Ilmanpaine 1027 hPa
Näkyvyys: 4200 m
Muutamia pilviä 200 ft:n korkeudessa
utua

METAR: LFRT 210600Z AUTO 00000KT 4200 BR FEW002 06/06 Q1027

Aika: 08:42 (06:42 UTC)


TAF: puuttuu

Säähavainnot ja -ennusteet yli 4000 lentoasemalta (METAR- ja TAF-raportit).

Käytössä olevat sääasemat on merkitty karttaan keltaisilla ja punaisilla pisteillä.

Aseta hiiri pisteen päälle nähdäksesi sääaseman nimen.

Klikkaa sitten nähdäksesi säähavainnot ja -ennusteet.

Kartan vaihtaminen: klikkaa mustalla rastilla varustettuja vihreitä pisteitä, niin voit zoomata sisään; viivalla varustettua vihreää pistettä, niin voit zoomata ulos tai vihreitä nuolia, niin pääset viereisille kartoille.


METAR-TAF: